createdAt,value
2017-06-27T00:02:23.046Z,100541.87
2017-06-27T00:04:50.592Z,100532.48
2017-06-27T00:07:17.821Z,100535.33
2017-06-27T00:09:49.296Z,100535.91
2017-06-27T00:12:18.506Z,100539.36
2017-06-27T00:14:45.948Z,100523.34
2017-06-27T00:17:13.120Z,100523.47
2017-06-27T00:19:40.620Z,100525.69
2017-06-27T00:22:07.137Z,100523.42
2017-06-27T00:24:35.298Z,100517.99
2017-06-27T00:27:03.594Z,100526.03
2017-06-27T00:29:31.108Z,100516.16
2017-06-27T00:32:01.633Z,100514.28
2017-06-27T00:34:29.683Z,100518.15
2017-06-27T00:36:58.243Z,100516.11
2017-06-27T00:39:25.343Z,100513.59
2017-06-27T00:41:53.721Z,100513.70
2017-06-27T00:44:27.870Z,100507.38
2017-06-27T00:46:55.984Z,100510.62
2017-06-27T00:49:22.488Z,100506.55
2017-06-27T00:51:50.091Z,100519.02
2017-06-27T00:54:17.922Z,100517.84
2017-06-27T00:56:45.427Z,100522.06
2017-06-27T00:59:11.952Z,100516.63
2017-06-27T01:01:39.247Z,100517.45
2017-06-27T01:04:07.142Z,100516.45
2017-06-27T01:06:33.774Z,100518.75
2017-06-27T01:09:01.267Z,100516.78
2017-06-27T01:11:29.521Z,100514.63
2017-06-27T01:13:57.160Z,100517.13
2017-06-27T01:16:24.573Z,100522.15
2017-06-27T01:18:51.862Z,100520.75
2017-06-27T01:21:18.929Z,100522.91
2017-06-27T01:23:47.624Z,100519.35
2017-06-27T01:26:14.389Z,100519.68
2017-06-27T01:28:41.594Z,100518.95
2017-06-27T01:31:08.447Z,100518.16
2017-06-27T01:33:36.752Z,100517.09
2017-06-27T01:36:04.226Z,100518.30
2017-06-27T01:38:31.141Z,100513.92
2017-06-27T01:40:58.223Z,100510.91
2017-06-27T01:43:25.602Z,100511.11
2017-06-27T01:45:52.461Z,100512.97
2017-06-27T01:48:19.053Z,100507.95
2017-06-27T01:50:46.536Z,100505.74
2017-06-27T01:53:13.229Z,100503.90
2017-06-27T01:58:15.031Z,100502.85
2017-06-27T02:00:41.731Z,100499.15
2017-06-27T02:03:08.314Z,100493.77
2017-06-27T02:05:35.031Z,100492.58
2017-06-27T02:08:01.788Z,100494.05
2017-06-27T02:10:28.369Z,100489.92
2017-06-27T02:12:55.662Z,100489.55
2017-06-27T02:15:22.762Z,100486.52
2017-06-27T02:17:50.693Z,100487.49
2017-06-27T02:20:19.099Z,100486.24
2017-06-27T02:22:47.568Z,100485.35
2017-06-27T02:25:14.190Z,100487.67
2017-06-27T02:27:40.806Z,100479.34
2017-06-27T02:30:07.446Z,100481.22
2017-06-27T02:32:33.985Z,100486.41
2017-06-27T02:35:01.694Z,100475.87
2017-06-27T02:37:29.152Z,100478.31
2017-06-27T02:39:56.561Z,100488.46
2017-06-27T02:42:25.750Z,100485.42
2017-06-27T08:58:35.089Z,100283.38
2017-06-27T09:01:01.459Z,100281.06
2017-06-27T09:03:27.837Z,100269.43
2017-06-27T09:05:54.196Z,100278.20
2017-06-27T09:08:20.554Z,100271.52
2017-06-27T09:10:46.903Z,100273.72
2017-06-27T09:13:13.274Z,100278.33
2017-06-27T09:15:39.616Z,100269.45
2017-06-27T09:18:05.969Z,100276.71
2017-06-27T09:20:32.623Z,100272.88
2017-06-27T09:22:58.985Z,100267.87
2017-06-27T09:25:25.333Z,100274.50
2017-06-27T09:27:51.680Z,100270.99
2017-06-27T09:30:18.034Z,100266.28
2017-06-27T09:32:44.369Z,100270.52
2017-06-27T09:35:10.699Z,100265.11
2017-06-27T09:37:37.301Z,100260.38
2017-06-27T09:40:03.626Z,100254.16
2017-06-27T09:42:29.981Z,100258.84
2017-06-27T09:44:56.308Z,100251.80
2017-06-27T09:47:22.735Z,100250.88
2017-06-27T09:49:49.130Z,100242.39
2017-06-27T09:52:15.461Z,100244.12
2017-06-27T09:54:41.823Z,100233.77
2017-06-27T09:57:08.161Z,100227.94
2017-06-27T09:59:34.521Z,100228.43
2017-06-27T10:02:00.889Z,100219.52
2017-06-27T10:04:27.249Z,100222.91
2017-06-27T10:06:53.607Z,100221.08
2017-06-27T10:09:19.989Z,100220.75
2017-06-27T10:11:46.368Z,100226.08
2017-06-27T10:14:12.706Z,100222.77
2017-06-27T10:16:39.076Z,100224.27
2017-06-27T10:19:05.403Z,100228.28
2017-06-27T10:21:31.736Z,100225.56
2017-06-27T10:23:58.103Z,100222.28
2017-06-27T10:26:24.465Z,100217.14
2017-06-27T10:28:50.815Z,100224.23
2017-06-27T10:31:17.173Z,100224.69
2017-06-27T10:33:43.502Z,100222.57
2017-06-27T10:36:09.855Z,100220.41
2017-06-27T10:38:36.172Z,100211.11
2017-06-27T10:41:02.489Z,100212.41
2017-06-27T10:43:28.814Z,100218.44
2017-06-27T10:45:55.151Z,100219.24
2017-06-27T10:48:21.494Z,100212.36
2017-06-27T10:50:47.877Z,100207.60
2017-06-27T10:53:14.265Z,100201.20
2017-06-27T10:55:40.630Z,100197.30
2017-06-27T10:58:06.981Z,100194.06
2017-06-27T11:00:33.297Z,100191.78
2017-06-27T11:02:59.660Z,100190.42
2017-06-27T11:05:26.026Z,100193.66
2017-06-27T11:07:52.394Z,100190.30
2017-06-27T11:10:18.722Z,100194.70
2017-06-27T11:12:45.045Z,100195.74
2017-06-27T11:15:11.390Z,100199.16
2017-06-27T11:17:37.732Z,100191.02
2017-06-27T11:20:04.071Z,100194.86
2017-06-27T11:22:30.385Z,100187.86
2017-06-27T11:24:56.742Z,100182.70
2017-06-27T11:27:23.160Z,100180.05
2017-06-27T11:29:49.510Z,100173.65
2017-06-27T11:32:15.840Z,100172.34
2017-06-27T11:34:43.094Z,100177.96
2017-06-27T11:37:09.421Z,100169.27
2017-06-27T11:39:35.745Z,100174.78
2017-06-27T11:42:02.081Z,100168.02
2017-06-27T14:54:32.287Z,99972.27
2017-06-27T14:56:58.691Z,99965.28
2017-06-27T14:59:25.102Z,99952.38
2017-06-27T15:07:36.177Z,99938.41
2017-06-27T15:10:02.555Z,99930.20
2017-06-27T15:12:28.921Z,99928.94
2017-06-27T15:14:55.269Z,99926.33
2017-06-27T15:17:21.650Z,99922.88
2017-06-27T15:19:48.026Z,99927.38
2017-06-27T15:22:14.376Z,99922.02
2017-06-27T15:24:40.764Z,99924.16
2017-06-27T15:27:07.123Z,99915.11
2017-06-27T15:29:33.547Z,99915.86
2017-06-27T15:31:59.884Z,99918.69
2017-06-27T15:34:26.240Z,99912.64
2017-06-27T15:36:52.658Z,99912.34
2017-06-27T15:39:19.033Z,99909.14
2017-06-27T15:41:45.418Z,99909.20
2017-06-27T15:44:11.794Z,99901.02
2017-06-27T15:46:38.181Z,99900.51
2017-06-27T15:49:04.569Z,99894.98
2017-06-27T15:51:31.076Z,99890.83
2017-06-27T15:56:49.852Z,99882.99
2017-06-27T15:59:16.199Z,99876.75
2017-06-27T16:01:42.573Z,99876.10
2017-06-27T16:04:08.950Z,99875.30
2017-06-27T16:06:35.322Z,99868.32
2017-06-27T16:09:01.887Z,99862.70
2017-06-27T16:11:28.276Z,99871.94
2017-06-27T16:13:54.664Z,99873.29
2017-06-27T16:16:21.033Z,99868.43
2017-06-27T16:18:47.395Z,99869.06
2017-06-27T16:21:13.787Z,99857.70
2017-06-27T16:23:40.144Z,99854.70
2017-06-27T16:26:07.072Z,99847.98
2017-06-27T16:28:34.642Z,99853.59
2017-06-27T16:31:01.099Z,99844.02
2017-06-27T16:33:27.479Z,99839.88
2017-06-27T16:35:53.865Z,99852.01
2017-06-27T16:38:26.315Z,99838.64
2017-06-27T16:40:52.711Z,99834.61
2017-06-27T16:43:19.087Z,99831.67
2017-06-27T16:45:45.483Z,99826.19
2017-06-27T16:48:11.890Z,99817.27
2017-06-27T16:50:38.295Z,99812.86
2017-06-27T16:53:04.688Z,99799.84
2017-06-27T16:55:31.117Z,99800.52
2017-06-27T16:57:57.556Z,99794.89
2017-06-27T17:00:23.907Z,99795.37
2017-06-27T17:02:50.312Z,99785.06
2017-06-27T17:05:16.718Z,99791.91
2017-06-27T17:07:43.093Z,99788.73
2017-06-27T17:10:09.455Z,99785.36
2017-06-27T17:12:35.802Z,99785.66
2017-06-27T17:15:02.188Z,99780.04
2017-06-27T17:17:28.768Z,99773.89
2017-06-27T17:19:55.120Z,99766.25
2017-06-27T17:22:21.487Z,99770.84
2017-06-27T17:24:47.887Z,99767.14
2017-06-27T17:27:14.271Z,99764.94
2017-06-27T17:29:40.703Z,99758.19
2017-06-27T17:32:07.090Z,99761.05
2017-06-27T17:34:33.421Z,99754.77
2017-06-27T17:36:59.836Z,99753.91
2017-06-27T17:39:26.244Z,99750.47
2017-06-27T17:41:52.641Z,99746.22
2017-06-27T17:44:18.985Z,99743.09
2017-06-27T17:46:45.364Z,99730.75
2017-06-27T17:49:11.709Z,99729.65
2017-06-27T17:51:38.108Z,99727.33
2017-06-27T17:54:04.511Z,99724.34
2017-06-27T17:56:31.137Z,99717.61
2017-06-27T17:58:58.287Z,99716.03
2017-06-27T18:01:25.153Z,99718.67
2017-06-27T18:03:51.568Z,99719.63
2017-06-27T18:06:18.089Z,99715.66
2017-06-27T18:08:44.787Z,99715.00
2017-06-27T18:11:11.169Z,99718.00
2017-06-27T18:13:37.553Z,99717.73
2017-06-27T18:16:03.912Z,99710.48
2017-06-27T18:21:23.099Z,99716.45
2017-06-27T18:26:42.857Z,99704.83
2017-06-27T18:29:09.337Z,99704.25
2017-06-27T18:31:35.702Z,99694.84
2017-06-27T18:34:02.059Z,99690.44
2017-06-27T18:36:28.516Z,99693.55
2017-06-27T18:38:54.892Z,99685.55
2017-06-27T18:41:21.311Z,99685.33
2017-06-27T18:43:47.673Z,99675.86
2017-06-27T18:46:14.073Z,99676.82
2017-06-27T18:48:40.499Z,99679.41
2017-06-27T18:51:07.047Z,99673.78
2017-06-27T18:53:33.603Z,99666.75
2017-06-27T18:56:00.201Z,99662.37
2017-06-27T18:58:26.898Z,99654.91
2017-06-27T19:00:54.055Z,99651.73
2017-06-27T19:03:21.195Z,99651.05
2017-06-27T19:05:47.897Z,99650.72
2017-06-27T19:08:14.941Z,99646.27
2017-06-27T19:10:41.710Z,99647.60
2017-06-27T19:13:09.144Z,99633.43
2017-06-27T19:15:35.809Z,99640.23
2017-06-27T19:18:03.403Z,99637.50
2017-06-27T19:20:30.137Z,99644.94
2017-06-27T19:22:56.864Z,99640.07
2017-06-27T19:25:23.707Z,99645.11
2017-06-27T19:27:51.212Z,99645.42
2017-06-27T19:30:18.073Z,99651.00
2017-06-27T19:32:44.943Z,99658.63
2017-06-27T19:35:11.665Z,99661.61
2017-06-27T19:37:39.601Z,99657.67
2017-06-27T19:40:06.381Z,99656.73
2017-06-27T19:42:33.122Z,99660.11
2017-06-27T19:44:59.872Z,99659.27
2017-06-27T19:47:26.566Z,99659.70
2017-06-27T19:49:54.388Z,99650.73
2017-06-27T19:52:21.106Z,99650.97
2017-06-27T19:54:47.811Z,99653.27
2017-06-27T19:57:14.580Z,99659.13
2017-06-27T19:59:41.276Z,99656.94
2017-06-27T20:02:08.575Z,99655.25
2017-06-27T20:04:35.278Z,99649.23
2017-06-27T20:07:01.959Z,99638.89
2017-06-27T20:09:29.165Z,99640.84
2017-06-27T20:11:55.885Z,99637.23
2017-06-27T20:14:22.523Z,99633.73
2017-06-27T20:16:49.236Z,99632.89
2017-06-27T20:19:15.991Z,99629.70
2017-06-27T20:21:42.700Z,99626.27
2017-06-27T20:24:09.348Z,99619.64
2017-06-27T20:26:35.903Z,99613.09
2017-06-27T20:29:02.364Z,99607.27
2017-06-27T20:31:28.737Z,99598.34
2017-06-27T20:33:55.097Z,99598.78
2017-06-27T20:36:21.475Z,99594.38
2017-06-27T20:38:47.834Z,99592.50
2017-06-27T20:41:14.174Z,99594.06
2017-06-27T20:43:41.141Z,99589.32
2017-06-27T20:46:11.163Z,99581.82
2017-06-27T20:48:37.659Z,99574.12
2017-06-27T20:51:04.044Z,99572.66
2017-06-27T20:53:30.384Z,99571.83
2017-06-27T20:56:04.693Z,99572.03
2017-06-27T20:58:33.091Z,99566.41
2017-06-27T21:01:18.138Z,99563.28
2017-06-27T21:03:44.895Z,99553.50
2017-06-27T21:06:14.762Z,99554.42
2017-06-27T21:08:41.156Z,99554.37
2017-06-27T21:11:09.881Z,99543.52
2017-06-27T21:13:36.301Z,99544.44
2017-06-27T21:16:03.183Z,99546.80
2017-06-27T21:18:32.976Z,99544.35
2017-06-27T21:21:03.829Z,99539.25
2017-06-27T21:23:30.921Z,99543.58
2017-06-27T21:25:57.540Z,99538.22
2017-06-27T21:28:26.122Z,99542.02
2017-06-27T21:30:54.247Z,99545.19
2017-06-27T21:33:20.730Z,99545.70
2017-06-27T21:35:47.118Z,99543.66
2017-06-27T21:38:13.809Z,99541.91
2017-06-27T21:40:40.157Z,99533.27
2017-06-27T21:43:06.510Z,99530.16
2017-06-27T21:45:32.868Z,99526.00
2017-06-27T21:47:59.221Z,99518.70
2017-06-27T21:50:25.579Z,99518.37
2017-06-27T21:52:52.004Z,99519.14
2017-06-27T21:55:18.365Z,99521.06
2017-06-27T21:57:44.722Z,99523.67
2017-06-27T22:00:11.114Z,99516.61
2017-06-27T22:02:37.444Z,99520.66
2017-06-27T22:05:03.791Z,99523.05
2017-06-27T22:07:30.128Z,99521.13
2017-06-27T22:09:56.468Z,99518.55
2017-06-27T22:12:22.840Z,99516.19
2017-06-27T22:14:49.241Z,99514.87
2017-06-27T22:17:15.617Z,99510.77
2017-06-27T22:19:41.964Z,99501.54
2017-06-27T22:22:08.310Z,99503.55
2017-06-27T22:24:34.629Z,99493.09
2017-06-27T22:27:00.953Z,99496.19
2017-06-27T22:29:27.304Z,99488.47
2017-06-27T22:31:53.644Z,99488.63
2017-06-27T22:34:19.983Z,99488.29
2017-06-27T22:36:46.333Z,99483.61
2017-06-27T22:39:12.656Z,99485.28
2017-06-27T22:41:39.004Z,99484.45
2017-06-27T22:44:05.343Z,99484.10
2017-06-27T22:46:31.713Z,99479.06
2017-06-27T22:48:58.084Z,99464.41
2017-06-27T22:51:24.444Z,99473.88
2017-06-27T22:53:50.813Z,99463.17
2017-06-27T22:56:17.161Z,99465.75
2017-06-27T22:58:43.515Z,99455.13
2017-06-27T23:01:09.840Z,99456.05
2017-06-27T23:03:36.208Z,99448.84
2017-06-27T23:06:02.568Z,99450.53
2017-06-27T23:08:28.951Z,99441.23
2017-06-27T23:10:55.304Z,99435.97
2017-06-27T23:13:21.925Z,99436.70
2017-06-27T23:15:48.341Z,99438.72
2017-06-27T23:18:15.350Z,99431.42
2017-06-27T23:20:41.717Z,99428.52
2017-06-27T23:23:08.056Z,99426.32
2017-06-27T23:25:34.391Z,99417.61
2017-06-27T23:28:00.732Z,99418.03
2017-06-27T23:30:27.091Z,99416.52
2017-06-27T23:32:53.444Z,99408.81
2017-06-27T23:35:19.803Z,99405.77
2017-06-27T23:37:46.841Z,99398.99
2017-06-27T23:40:13.240Z,99388.45
2017-06-27T23:42:39.586Z,99384.67
2017-06-27T23:45:05.930Z,99387.81
2017-06-27T23:47:32.291Z,99381.42
2017-06-27T23:49:58.641Z,99377.81
2017-06-27T23:52:24.999Z,99379.62
2017-06-27T23:54:51.344Z,99371.50
2017-06-27T23:57:17.703Z,99362.50
2017-06-27T23:59:44.060Z,99360.55
